sensor_id;sensor_type;location;lat;lon;timestamp;temperature;humidity
54124;DHT22;55741;53.252;5.788;2023-08-01T00:00:02;16.10;99.90
54124;DHT22;55741;53.252;5.788;2023-08-01T00:02:29;16.10;99.90
54124;DHT22;55741;53.252;5.788;2023-08-01T00:04:54;16.10;99.90
54124;DHT22;55741;53.252;5.788;2023-08-01T00:07:22;16.10;99.90
54124;DHT22;55741;53.252;5.788;2023-08-01T00:09:47;16.10;99.90
54124;DHT22;55741;53.252;5.788;2023-08-01T00:12:14;16.10;99.90
54124;DHT22;55741;53.252;5.788;2023-08-01T00:14:40;16.10;99.90
54124;DHT22;55741;53.252;5.788;2023-08-01T00:17:06;16.00;99.90
54124;DHT22;55741;53.252;5.788;2023-08-01T00:19:31;16.00;99.90
54124;DHT22;55741;53.252;5.788;2023-08-01T00:21:57;16.00;99.90
54124;DHT22;55741;53.252;5.788;2023-08-01T00:24:23;16.00;99.90
54124;DHT22;55741;53.252;5.788;2023-08-01T00:26:49;15.90;99.90
54124;DHT22;55741;53.252;5.788;2023-08-01T00:29:15;15.90;99.90
54124;DHT22;55741;53.252;5.788;2023-08-01T00:31:40;15.90;99.90
54124;DHT22;55741;53.252;5.788;2023-08-01T00:34:07;15.90;99.90
54124;DHT22;55741;53.252;5.788;2023-08-01T00:36:32;15.90;99.90
54124;DHT22;55741;53.252;5.788;2023-08-01T00:38:58;15.80;99.90
54124;DHT22;55741;53.252;5.788;2023-08-01T00:41:24;15.80;99.90
54124;DHT22;55741;53.252;5.788;2023-08-01T00:43:50;15.80;99.90
54124;DHT22;55741;53.252;5.788;2023-08-01T00:46:16;15.70;99.90
54124;DHT22;55741;53.252;5.788;2023-08-01T00:48:41;15.80;99.90
54124;DHT22;55741;53.252;5.788;2023-08-01T00:51:08;15.70;99.90
54124;DHT22;55741;53.252;5.788;2023-08-01T00:53:35;15.70;99.90
54124;DHT22;55741;53.252;5.788;2023-08-01T00:56:01;15.60;99.90
54124;DHT22;55741;53.252;5.788;2023-08-01T00:58:29;15.60;99.90
54124;DHT22;55741;53.252;5.788;2023-08-01T01:00:55;15.60;99.90
54124;DHT22;55741;53.252;5.788;2023-08-01T01:03:22;15.50;99.90
54124;DHT22;55741;53.252;5.788;2023-08-01T01:05:53;15.50;99.90
54124;DHT22;55741;53.252;5.788;2023-08-01T01:08:23;15.50;99.90
54124;DHT22;55741;53.252;5.788;2023-08-01T01:10:49;15.40;99.90
54124;DHT22;55741;53.252;5.788;2023-08-01T01:13:14;15.40;99.90
54124;DHT22;55741;53.252;5.788;2023-08-01T01:15:40;15.40;99.90
54124;DHT22;55741;53.252;5.788;2023-08-01T01:18:06;15.40;99.90
54124;DHT22;55741;53.252;5.788;2023-08-01T01:20:35;15.40;99.90
54124;DHT22;55741;53.252;5.788;2023-08-01T01:23:04;15.40;99.90
54124;DHT22;55741;53.252;5.788;2023-08-01T01:25:32;15.40;99.90
54124;DHT22;55741;53.252;5.788;2023-08-01T01:27:59;15.40;99.90
54124;DHT22;55741;53.252;5.788;2023-08-01T01:30:27;15.40;99.90
54124;DHT22;55741;53.252;5.788;2023-08-01T01:32:54;15.40;99.90
54124;DHT22;55741;53.252;5.788;2023-08-01T01:35:19;15.40;99.90
54124;DHT22;55741;53.252;5.788;2023-08-01T01:37:45;15.40;99.90
54124;DHT22;55741;53.252;5.788;2023-08-01T01:40:11;15.30;99.90
54124;DHT22;55741;53.252;5.788;2023-08-01T01:42:37;15.30;99.90
54124;DHT22;55741;53.252;5.788;2023-08-01T01:45:04;15.30;99.90
54124;DHT22;55741;53.252;5.788;2023-08-01T01:47:30;15.40;99.90
54124;DHT22;55741;53.252;5.788;2023-08-01T01:49:55;15.30;99.90
54124;DHT22;55741;53.252;5.788;2023-08-01T01:52:21;15.30;99.90
54124;DHT22;55741;53.252;5.788;2023-08-01T01:54:47;15.40;99.90
54124;DHT22;55741;53.252;5.788;2023-08-01T01:57:13;15.30;99.90
54124;DHT22;55741;53.252;5.788;2023-08-01T01:59:39;15.30;99.90
54124;DHT22;55741;53.252;5.788;2023-08-01T02:02:05;15.30;99.90
54124;DHT22;55741;53.252;5.788;2023-08-01T02:04:30;15.30;99.90
54124;DHT22;55741;53.252;5.788;2023-08-01T02:06:56;15.30;99.90
54124;DHT22;55741;53.252;5.788;2023-08-01T02:09:24;15.40;99.90
54124;DHT22;55741;53.252;5.788;2023-08-01T02:11:50;15.40;99.90
54124;DHT22;55741;53.252;5.788;2023-08-01T02:14:15;15.40;99.90
54124;DHT22;55741;53.252;5.788;2023-08-01T02:16:41;15.40;99.90
54124;DHT22;55741;53.252;5.788;2023-08-01T02:19:07;15.40;99.90
54124;DHT22;55741;53.252;5.788;2023-08-01T02:21:33;15.40;99.90
54124;DHT22;55741;53.252;5.788;2023-08-01T02:23:59;15.40;99.90
54124;DHT22;55741;53.252;5.788;2023-08-01T02:26:24;15.40;99.90
54124;DHT22;55741;53.252;5.788;2023-08-01T02:28:50;15.40;99.90
54124;DHT22;55741;53.252;5.788;2023-08-01T02:31:17;15.40;99.90
54124;DHT22;55741;53.252;5.788;2023-08-01T02:33:42;15.40;99.90
54124;DHT22;55741;53.252;5.788;2023-08-01T02:36:08;15.40;99.90
54124;DHT22;55741;53.252;5.788;2023-08-01T02:38:34;15.40;99.90
54124;DHT22;55741;53.252;5.788;2023-08-01T02:41:00;15.40;99.90
54124;DHT22;55741;53.252;5.788;2023-08-01T02:43:26;15.40;99.90
54124;DHT22;55741;53.252;5.788;2023-08-01T02:45:51;15.40;99.90
54124;DHT22;55741;53.252;5.788;2023-08-01T02:48:17;15.40;99.90
54124;DHT22;55741;53.252;5.788;2023-08-01T02:50:43;15.40;99.90
54124;DHT22;55741;53.252;5.788;2023-08-01T02:53:09;15.40;99.90
54124;DHT22;55741;53.252;5.788;2023-08-01T02:55:35;15.40;99.90
54124;DHT22;55741;53.252;5.788;2023-08-01T02:58:00;15.40;99.90
54124;DHT22;55741;53.252;5.788;2023-08-01T03:00:26;15.30;99.90
54124;DHT22;55741;53.252;5.788;2023-08-01T03:02:52;15.30;99.90
54124;DHT22;55741;53.252;5.788;2023-08-01T03:05:18;15.30;99.90
54124;DHT22;55741;53.252;5.788;2023-08-01T03:07:43;15.30;99.90
54124;DHT22;55741;53.252;5.788;2023-08-01T03:10:11;15.30;99.90
54124;DHT22;55741;53.252;5.788;2023-08-01T03:12:37;15.20;99.90
54124;DHT22;55741;53.252;5.788;2023-08-01T03:15:03;15.20;99.90
54124;DHT22;55741;53.252;5.788;2023-08-01T03:17:29;15.20;99.90
54124;DHT22;55741;53.252;5.788;2023-08-01T03:19:55;15.20;99.90
54124;DHT22;55741;53.252;5.788;2023-08-01T03:22:21;15.20;99.90
54124;DHT22;55741;53.252;5.788;2023-08-01T03:24:47;15.20;99.90
54124;DHT22;55741;53.252;5.788;2023-08-01T03:27:13;15.10;99.90
54124;DHT22;55741;53.252;5.788;2023-08-01T03:29:39;15.10;99.90
54124;DHT22;55741;53.252;5.788;2023-08-01T03:32:05;15.10;99.90
54124;DHT22;55741;53.252;5.788;2023-08-01T03:34:31;15.10;99.90
54124;DHT22;55741;53.252;5.788;2023-08-01T03:36:57;15.10;99.90
54124;DHT22;55741;53.252;5.788;2023-08-01T03:39:23;15.10;99.90
54124;DHT22;55741;53.252;5.788;2023-08-01T03:41:49;15.10;99.90
54124;DHT22;55741;53.252;5.788;2023-08-01T03:44:15;15.10;99.90
54124;DHT22;55741;53.252;5.788;2023-08-01T03:46:43;15.10;99.90
54124;DHT22;55741;53.252;5.788;2023-08-01T03:49:09;15.10;99.90
54124;DHT22;55741;53.252;5.788;2023-08-01T03:51:35;15.10;99.90
54124;DHT22;55741;53.252;5.788;2023-08-01T03:54:00;15.10;99.90
54124;DHT22;55741;53.252;5.788;2023-08-01T03:56:26;15.10;99.90
54124;DHT22;55741;53.252;5.788;2023-08-01T03:58:53;15.10;99.90
54124;DHT22;55741;53.252;5.788;2023-08-01T04:01:19;15.10;99.90
54124;DHT22;55741;53.252;5.788;2023-08-01T04:03:46;15.10;99.90
54124;DHT22;55741;53.252;5.788;2023-08-01T04:06:12;15.10;99.90
54124;DHT22;55741;53.252;5.788;2023-08-01T04:08:41;15.10;99.90
54124;DHT22;55741;53.252;5.788;2023-08-01T04:11:08;15.10;99.90
54124;DHT22;55741;53.252;5.788;2023-08-01T04:13:34;15.20;99.90
54124;DHT22;55741;53.252;5.788;2023-08-01T04:15:59;15.20;99.90
54124;DHT22;55741;53.252;5.788;2023-08-01T04:18:26;15.20;99.90
54124;DHT22;55741;53.252;5.788;2023-08-01T04:20:52;15.20;99.90
54124;DHT22;55741;53.252;5.788;2023-08-01T04:23:18;15.30;99.90
54124;DHT22;55741;53.252;5.788;2023-08-01T04:25:43;15.30;99.90
54124;DHT22;55741;53.252;5.788;2023-08-01T04:28:09;15.30;99.90
54124;DHT22;55741;53.252;5.788;2023-08-01T04:30:35;15.30;99.90
54124;DHT22;55741;53.252;5.788;2023-08-01T04:33:04;15.30;99.90
54124;DHT22;55741;53.252;5.788;2023-08-01T04:35:30;15.30;99.90
54124;DHT22;55741;53.252;5.788;2023-08-01T04:37:56;15.30;99.90
54124;DHT22;55741;53.252;5.788;2023-08-01T04:40:21;15.30;99.90
54124;DHT22;55741;53.252;5.788;2023-08-01T04:42:47;15.40;99.90
54124;DHT22;55741;53.252;5.788;2023-08-01T04:45:13;15.30;99.90
54124;DHT22;55741;53.252;5.788;2023-08-01T04:47:39;15.30;99.90
54124;DHT22;55741;53.252;5.788;2023-08-01T04:50:06;15.30;99.90
54124;DHT22;55741;53.252;5.788;2023-08-01T04:52:32;15.40;99.90
54124;DHT22;55741;53.252;5.788;2023-08-01T04:54:58;15.40;99.90
54124;DHT22;55741;53.252;5.788;2023-08-01T04:57:26;15.40;99.90
54124;DHT22;55741;53.252;5.788;2023-08-01T04:59:52;15.30;99.90
54124;DHT22;55741;53.252;5.788;2023-08-01T05:02:17;15.30;99.90
54124;DHT22;55741;53.252;5.788;2023-08-01T05:04:43;15.30;99.90
54124;DHT22;55741;53.252;5.788;2023-08-01T05:07:09;15.30;99.90
54124;DHT22;55741;53.252;5.788;2023-08-01T05:09:35;15.40;99.90
54124;DHT22;55741;53.252;5.788;2023-08-01T05:12:02;15.40;99.90
54124;DHT22;55741;53.252;5.788;2023-08-01T05:14:28;15.40;99.90
54124;DHT22;55741;53.252;5.788;2023-08-01T05:16:54;15.40;99.90
54124;DHT22;55741;53.252;5.788;2023-08-01T05:19:20;15.40;99.90
54124;DHT22;55741;53.252;5.788;2023-08-01T05:21:45;15.30;99.90
54124;DHT22;55741;53.252;5.788;2023-08-01T05:24:12;15.30;99.90
54124;DHT22;55741;53.252;5.788;2023-08-01T05:26:38;15.30;99.90
54124;DHT22;55741;53.252;5.788;2023-08-01T05:29:03;15.40;99.90
54124;DHT22;55741;53.252;5.788;2023-08-01T05:31:29;15.30;99.90
54124;DHT22;55741;53.252;5.788;2023-08-01T05:33:55;15.30;99.90
54124;DHT22;55741;53.252;5.788;2023-08-01T05:36:21;15.30;99.90
54124;DHT22;55741;53.252;5.788;2023-08-01T05:38:46;15.30;99.90
54124;DHT22;55741;53.252;5.788;2023-08-01T05:41:12;15.20;99.90
54124;DHT22;55741;53.252;5.788;2023-08-01T05:43:38;15.20;99.90
54124;DHT22;55741;53.252;5.788;2023-08-01T05:46:04;15.30;99.90
54124;DHT22;55741;53.252;5.788;2023-08-01T05:48:30;15.20;99.90
54124;DHT22;55741;53.252;5.788;2023-08-01T05:50:55;15.20;99.90
54124;DHT22;55741;53.252;5.788;2023-08-01T05:53:22;15.20;99.90
54124;DHT22;55741;53.252;5.788;2023-08-01T05:55:47;15.30;99.90
54124;DHT22;55741;53.252;5.788;2023-08-01T05:58:13;15.30;99.90
54124;DHT22;55741;53.252;5.788;2023-08-01T06:00:39;15.30;99.90
54124;DHT22;55741;53.252;5.788;2023-08-01T06:03:05;15.40;99.90
54124;DHT22;55741;53.252;5.788;2023-08-01T06:05:31;15.40;99.90
54124;DHT22;55741;53.252;5.788;2023-08-01T06:07:57;15.50;99.90
54124;DHT22;55741;53.252;5.788;2023-08-01T06:10:23;15.50;99.90
54124;DHT22;55741;53.252;5.788;2023-08-01T06:13:10;15.50;99.90
54124;DHT22;55741;53.252;5.788;2023-08-01T06:15:36;15.50;99.90
54124;DHT22;55741;53.252;5.788;2023-08-01T06:18:02;15.50;99.90
54124;DHT22;55741;53.252;5.788;2023-08-01T06:20:28;15.50;99.90
54124;DHT22;55741;53.252;5.788;2023-08-01T06:22:54;15.50;99.90
54124;DHT22;55741;53.252;5.788;2023-08-01T06:25:19;15.40;99.90
54124;DHT22;55741;53.252;5.788;2023-08-01T06:27:45;15.40;99.90
54124;DHT22;55741;53.252;5.788;2023-08-01T06:30:11;15.40;99.90
54124;DHT22;55741;53.252;5.788;2023-08-01T06:32:37;15.30;99.90
54124;DHT22;55741;53.252;5.788;2023-08-01T06:35:03;15.30;99.90
54124;DHT22;55741;53.252;5.788;2023-08-01T06:37:29;15.30;99.90
54124;DHT22;55741;53.252;5.788;2023-08-01T06:39:56;15.30;99.90
54124;DHT22;55741;53.252;5.788;2023-08-01T06:42:22;15.30;99.90
54124;DHT22;55741;53.252;5.788;2023-08-01T06:44:48;15.30;99.90
54124;DHT22;55741;53.252;5.788;2023-08-01T06:47:14;15.30;99.90
54124;DHT22;55741;53.252;5.788;2023-08-01T06:49:40;15.30;99.90
54124;DHT22;55741;53.252;5.788;2023-08-01T06:52:06;15.30;99.90
54124;DHT22;55741;53.252;5.788;2023-08-01T06:54:32;15.30;99.90
54124;DHT22;55741;53.252;5.788;2023-08-01T06:56:58;15.40;99.90
54124;DHT22;55741;53.252;5.788;2023-08-01T06:59:25;15.40;99.90
54124;DHT22;55741;53.252;5.788;2023-08-01T07:01:51;15.50;99.90
54124;DHT22;55741;53.252;5.788;2023-08-01T07:04:17;15.60;99.90
54124;DHT22;55741;53.252;5.788;2023-08-01T07:06:43;15.70;99.90
54124;DHT22;55741;53.252;5.788;2023-08-01T07:09:09;15.80;99.90
54124;DHT22;55741;53.252;5.788;2023-08-01T07:11:35;15.90;99.90
54124;DHT22;55741;53.252;5.788;2023-08-01T07:14:03;15.90;99.90
54124;DHT22;55741;53.252;5.788;2023-08-01T07:16:29;16.00;99.90
54124;DHT22;55741;53.252;5.788;2023-08-01T07:18:55;16.00;99.90
54124;DHT22;55741;53.252;5.788;2023-08-01T07:21:21;16.10;99.90
54124;DHT22;55741;53.252;5.788;2023-08-01T07:23:47;16.10;99.90
54124;DHT22;55741;53.252;5.788;2023-08-01T07:26:14;16.10;99.90
54124;DHT22;55741;53.252;5.788;2023-08-01T07:28:40;16.00;99.90
54124;DHT22;55741;53.252;5.788;2023-08-01T07:31:07;16.00;99.90
54124;DHT22;55741;53.252;5.788;2023-08-01T07:33:33;15.90;99.90
54124;DHT22;55741;53.252;5.788;2023-08-01T07:36:00;15.90;99.90
54124;DHT22;55741;53.252;5.788;2023-08-01T07:38:26;15.80;99.90
54124;DHT22;55741;53.252;5.788;2023-08-01T07:40:57;15.70;99.90
54124;DHT22;55741;53.252;5.788;2023-08-01T07:43:23;15.70;99.90
54124;DHT22;55741;53.252;5.788;2023-08-01T07:45:49;15.70;99.90
54124;DHT22;55741;53.252;5.788;2023-08-01T07:48:16;15.60;99.90
54124;DHT22;55741;53.252;5.788;2023-08-01T07:50:42;15.60;99.90
54124;DHT22;55741;53.252;5.788;2023-08-01T07:53:08;15.60;99.90
54124;DHT22;55741;53.252;5.788;2023-08-01T07:55:34;15.60;99.90
54124;DHT22;55741;53.252;5.788;2023-08-01T07:58:01;15.60;99.90
54124;DHT22;55741;53.252;5.788;2023-08-01T08:00:26;15.70;99.90
54124;DHT22;55741;53.252;5.788;2023-08-01T08:02:53;15.90;99.90
54124;DHT22;55741;53.252;5.788;2023-08-01T08:05:19;16.10;99.90
54124;DHT22;55741;53.252;5.788;2023-08-01T08:07:45;16.40;99.90
54124;DHT22;55741;53.252;5.788;2023-08-01T08:10:11;16.60;99.90
54124;DHT22;55741;53.252;5.788;2023-08-01T08:12:36;16.90;99.90
54124;DHT22;55741;53.252;5.788;2023-08-01T08:15:04;16.90;99.90
54124;DHT22;55741;53.252;5.788;2023-08-01T08:17:30;16.90;99.90
54124;DHT22;55741;53.252;5.788;2023-08-01T08:19:56;16.90;99.90
54124;DHT22;55741;53.252;5.788;2023-08-01T08:22:22;16.90;99.90
54124;DHT22;55741;53.252;5.788;2023-08-01T08:24:48;16.90;99.90
54124;DHT22;55741;53.252;5.788;2023-08-01T08:27:14;16.80;99.90
54124;DHT22;55741;53.252;5.788;2023-08-01T08:29:40;16.70;99.90
54124;DHT22;55741;53.252;5.788;2023-08-01T08:32:06;16.60;99.90
54124;DHT22;55741;53.252;5.788;2023-08-01T08:34:32;16.50;99.90
54124;DHT22;55741;53.252;5.788;2023-08-01T08:36:58;16.50;99.90
54124;DHT22;55741;53.252;5.788;2023-08-01T08:39:24;16.50;99.90
54124;DHT22;55741;53.252;5.788;2023-08-01T08:41:52;16.50;99.90
54124;DHT22;55741;53.252;5.788;2023-08-01T08:44:19;16.50;99.90
54124;DHT22;55741;53.252;5.788;2023-08-01T08:46:53;16.70;99.90
54124;DHT22;55741;53.252;5.788;2023-08-01T08:49:19;17.00;99.90
54124;DHT22;55741;53.252;5.788;2023-08-01T08:51:48;17.20;99.90
54124;DHT22;55741;53.252;5.788;2023-08-01T08:54:15;17.50;99.90
54124;DHT22;55741;53.252;5.788;2023-08-01T08:56:42;17.60;99.90
54124;DHT22;55741;53.252;5.788;2023-08-01T08:59:09;17.80;99.90
54124;DHT22;55741;53.252;5.788;2023-08-01T09:01:39;17.90;99.90
54124;DHT22;55741;53.252;5.788;2023-08-01T09:04:06;18.00;99.90
54124;DHT22;55741;53.252;5.788;2023-08-01T09:07:06;18.10;99.90
54124;DHT22;55741;53.252;5.788;2023-08-01T09:09:25;18.10;99.90
54124;DHT22;55741;53.252;5.788;2023-08-01T09:11:53;18.10;99.90
54124;DHT22;55741;53.252;5.788;2023-08-01T09:14:21;18.10;99.90
54124;DHT22;55741;53.252;5.788;2023-08-01T09:16:48;18.10;99.90
54124;DHT22;55741;53.252;5.788;2023-08-01T09:19:20;18.20;99.90
54124;DHT22;55741;53.252;5.788;2023-08-01T09:21:46;18.20;99.90
54124;DHT22;55741;53.252;5.788;2023-08-01T09:24:20;18.30;99.90
54124;DHT22;55741;53.252;5.788;2023-08-01T09:26:47;18.40;99.90
54124;DHT22;55741;53.252;5.788;2023-08-01T09:29:16;18.40;99.90
54124;DHT22;55741;53.252;5.788;2023-08-01T09:31:43;18.40;99.90
54124;DHT22;55741;53.252;5.788;2023-08-01T09:34:21;18.40;99.90
54124;DHT22;55741;53.252;5.788;2023-08-01T09:36:47;18.40;99.90
54124;DHT22;55741;53.252;5.788;2023-08-01T09:39:18;18.40;99.90
54124;DHT22;55741;53.252;5.788;2023-08-01T09:41:44;18.40;99.90
54124;DHT22;55741;53.252;5.788;2023-08-01T09:44:16;18.40;99.90
54124;DHT22;55741;53.252;5.788;2023-08-01T09:46:42;18.50;99.90
54124;DHT22;55741;53.252;5.788;2023-08-01T09:49:10;18.50;99.90
54124;DHT22;55741;53.252;5.788;2023-08-01T09:51:50;18.60;99.90
54124;DHT22;55741;53.252;5.788;2023-08-01T09:54:17;18.70;99.90
54124;DHT22;55741;53.252;5.788;2023-08-01T09:56:47;18.80;99.90
54124;DHT22;55741;53.252;5.788;2023-08-01T09:59:25;18.90;99.90
54124;DHT22;55741;53.252;5.788;2023-08-01T10:01:53;18.90;99.90
54124;DHT22;55741;53.252;5.788;2023-08-01T10:04:32;18.80;99.90
54124;DHT22;55741;53.252;5.788;2023-08-01T10:07:12;18.80;99.90
54124;DHT22;55741;53.252;5.788;2023-08-01T10:09:40;18.90;99.90
54124;DHT22;55741;53.252;5.788;2023-08-01T10:12:07;19.00;99.90
54124;DHT22;55741;53.252;5.788;2023-08-01T10:14:35;19.10;99.90
54124;DHT22;55741;53.252;5.788;2023-08-01T10:17:03;19.10;99.90
54124;DHT22;55741;53.252;5.788;2023-08-01T10:19:31;19.10;99.90
54124;DHT22;55741;53.252;5.788;2023-08-01T10:21:58;19.00;99.90
54124;DHT22;55741;53.252;5.788;2023-08-01T10:24:26;19.10;99.90
54124;DHT22;55741;53.252;5.788;2023-08-01T10:26:53;19.10;99.90
54124;DHT22;55741;53.252;5.788;2023-08-01T10:29:19;19.30;99.90
54124;DHT22;55741;53.252;5.788;2023-08-01T10:31:54;19.40;99.90
54124;DHT22;55741;53.252;5.788;2023-08-01T10:34:20;19.50;99.90
54124;DHT22;55741;53.252;5.788;2023-08-01T10:36:54;19.60;99.90
54124;DHT22;55741;53.252;5.788;2023-08-01T10:39:22;19.60;99.90
54124;DHT22;55741;53.252;5.788;2023-08-01T10:41:57;19.50;99.90
54124;DHT22;55741;53.252;5.788;2023-08-01T10:44:25;19.40;99.90
54124;DHT22;55741;53.252;5.788;2023-08-01T10:46:55;19.50;99.90
54124;DHT22;55741;53.252;5.788;2023-08-01T10:51:58;19.60;99.90
54124;DHT22;55741;53.252;5.788;2023-08-01T10:54:25;19.50;99.90
54124;DHT22;55741;53.252;5.788;2023-08-01T10:56:53;19.50;99.90
54124;DHT22;55741;53.252;5.788;2023-08-01T10:59:21;19.70;99.90
54124;DHT22;55741;53.252;5.788;2023-08-01T11:01:53;19.70;99.90
54124;DHT22;55741;53.252;5.788;2023-08-01T11:04:20;19.80;99.90
54124;DHT22;55741;53.252;5.788;2023-08-01T11:06:48;19.80;99.90
54124;DHT22;55741;53.252;5.788;2023-08-01T11:09:18;19.80;99.90
54124;DHT22;55741;53.252;5.788;2023-08-01T11:11:45;19.80;99.90
54124;DHT22;55741;53.252;5.788;2023-08-01T11:14:12;19.80;99.90
54124;DHT22;55741;53.252;5.788;2023-08-01T11:16:39;19.80;99.90
54124;DHT22;55741;53.252;5.788;2023-08-01T11:19:17;19.80;99.90
54124;DHT22;55741;53.252;5.788;2023-08-01T11:21:44;19.90;99.90
54124;DHT22;55741;53.252;5.788;2023-08-01T11:24:09;19.90;99.90
54124;DHT22;55741;53.252;5.788;2023-08-01T11:26:35;19.90;99.90
54124;DHT22;55741;53.252;5.788;2023-08-01T11:29:04;19.80;99.90
54124;DHT22;55741;53.252;5.788;2023-08-01T11:31:30;19.80;99.90
54124;DHT22;55741;53.252;5.788;2023-08-01T11:33:57;19.70;99.90
54124;DHT22;55741;53.252;5.788;2023-08-01T11:36:27;19.80;99.90
54124;DHT22;55741;53.252;5.788;2023-08-01T11:38:57;19.90;99.90
54124;DHT22;55741;53.252;5.788;2023-08-01T11:41:24;20.00;99.90
54124;DHT22;55741;53.252;5.788;2023-08-01T11:43:50;20.00;99.90
54124;DHT22;55741;53.252;5.788;2023-08-01T11:46:17;19.90;99.90
54124;DHT22;55741;53.252;5.788;2023-08-01T11:48:46;19.80;99.90
54124;DHT22;55741;53.252;5.788;2023-08-01T11:51:13;19.70;99.90
54124;DHT22;55741;53.252;5.788;2023-08-01T11:53:39;19.80;99.90
54124;DHT22;55741;53.252;5.788;2023-08-01T11:56:08;20.00;99.90
54124;DHT22;55741;53.252;5.788;2023-08-01T11:58:41;20.00;99.90
54124;DHT22;55741;53.252;5.788;2023-08-01T12:01:09;19.90;99.90
54124;DHT22;55741;53.252;5.788;2023-08-01T12:03:47;19.80;99.90
54124;DHT22;55741;53.252;5.788;2023-08-01T12:06:14;19.80;99.90
54124;DHT22;55741;53.252;5.788;2023-08-01T12:08:45;20.00;99.90
54124;DHT22;55741;53.252;5.788;2023-08-01T12:11:38;20.10;99.90
54124;DHT22;55741;53.252;5.788;2023-08-01T12:14:12;20.20;99.90
54124;DHT22;55741;53.252;5.788;2023-08-01T12:16:41;20.10;99.90
54124;DHT22;55741;53.252;5.788;2023-08-01T12:19:09;20.20;99.90
54124;DHT22;55741;53.252;5.788;2023-08-01T12:21:35;20.20;99.90
54124;DHT22;55741;53.252;5.788;2023-08-01T12:24:01;20.20;99.90
54124;DHT22;55741;53.252;5.788;2023-08-01T12:26:28;20.10;99.90
54124;DHT22;55741;53.252;5.788;2023-08-01T12:28:54;20.00;99.90
54124;DHT22;55741;53.252;5.788;2023-08-01T12:31:21;20.00;99.90
54124;DHT22;55741;53.252;5.788;2023-08-01T12:33:47;20.00;99.90
54124;DHT22;55741;53.252;5.788;2023-08-01T12:36:14;20.10;99.90
54124;DHT22;55741;53.252;5.788;2023-08-01T12:38:40;20.20;99.90
54124;DHT22;55741;53.252;5.788;2023-08-01T12:41:07;20.30;99.90
54124;DHT22;55741;53.252;5.788;2023-08-01T12:43:33;20.40;99.90
54124;DHT22;55741;53.252;5.788;2023-08-01T12:45:59;20.30;99.90
54124;DHT22;55741;53.252;5.788;2023-08-01T12:48:26;20.30;99.90
54124;DHT22;55741;53.252;5.788;2023-08-01T12:50:52;20.30;99.90
54124;DHT22;55741;53.252;5.788;2023-08-01T12:53:19;20.30;99.90
54124;DHT22;55741;53.252;5.788;2023-08-01T12:55:46;20.30;99.90
54124;DHT22;55741;53.252;5.788;2023-08-01T12:58:13;20.20;99.90
54124;DHT22;55741;53.252;5.788;2023-08-01T13:00:43;20.00;99.90
54124;DHT22;55741;53.252;5.788;2023-08-01T13:03:09;19.80;99.90
54124;DHT22;55741;53.252;5.788;2023-08-01T13:05:36;19.40;99.90
54124;DHT22;55741;53.252;5.788;2023-08-01T13:08:03;19.30;99.90
54124;DHT22;55741;53.252;5.788;2023-08-01T13:10:33;19.30;99.90
54124;DHT22;55741;53.252;5.788;2023-08-01T13:12:59;19.30;99.90
54124;DHT22;55741;53.252;5.788;2023-08-01T13:15:26;19.40;99.90
54124;DHT22;55741;53.252;5.788;2023-08-01T13:17:52;19.30;99.90
54124;DHT22;55741;53.252;5.788;2023-08-01T13:20:20;19.30;99.90
54124;DHT22;55741;53.252;5.788;2023-08-01T13:22:48;19.40;99.90
54124;DHT22;55741;53.252;5.788;2023-08-01T13:25:14;19.50;99.90
54124;DHT22;55741;53.252;5.788;2023-08-01T13:27:40;19.50;99.90
54124;DHT22;55741;53.252;5.788;2023-08-01T13:30:07;19.40;99.90
54124;DHT22;55741;53.252;5.788;2023-08-01T13:32:33;19.30;99.90
54124;DHT22;55741;53.252;5.788;2023-08-01T13:34:59;19.30;99.90
54124;DHT22;55741;53.252;5.788;2023-08-01T13:37:26;19.20;99.90
54124;DHT22;55741;53.252;5.788;2023-08-01T13:39:52;19.10;99.90
54124;DHT22;55741;53.252;5.788;2023-08-01T13:42:18;19.10;99.90
54124;DHT22;55741;53.252;5.788;2023-08-01T13:44:44;19.00;99.90
54124;DHT22;55741;53.252;5.788;2023-08-01T13:47:10;18.80;99.90
54124;DHT22;55741;53.252;5.788;2023-08-01T13:49:36;18.70;99.90
54124;DHT22;55741;53.252;5.788;2023-08-01T13:52:03;18.60;99.90
54124;DHT22;55741;53.252;5.788;2023-08-01T13:54:29;18.60;99.90
54124;DHT22;55741;53.252;5.788;2023-08-01T13:56:55;18.60;99.90
54124;DHT22;55741;53.252;5.788;2023-08-01T13:59:21;18.60;99.90
54124;DHT22;55741;53.252;5.788;2023-08-01T14:01:47;18.70;99.90
54124;DHT22;55741;53.252;5.788;2023-08-01T14:04:13;18.80;99.90
54124;DHT22;55741;53.252;5.788;2023-08-01T14:06:42;18.80;99.90
54124;DHT22;55741;53.252;5.788;2023-08-01T14:09:08;18.80;99.90
54124;DHT22;55741;53.252;5.788;2023-08-01T14:11:35;18.80;99.90
54124;DHT22;55741;53.252;5.788;2023-08-01T14:14:01;18.90;99.90
54124;DHT22;55741;53.252;5.788;2023-08-01T14:16:27;18.90;99.90
54124;DHT22;55741;53.252;5.788;2023-08-01T14:18:53;18.90;99.90
54124;DHT22;55741;53.252;5.788;2023-08-01T14:21:21;19.00;99.90
54124;DHT22;55741;53.252;5.788;2023-08-01T14:23:47;19.00;99.90
54124;DHT22;55741;53.252;5.788;2023-08-01T14:26:13;18.90;99.90
54124;DHT22;55741;53.252;5.788;2023-08-01T14:28:39;18.90;99.90
54124;DHT22;55741;53.252;5.788;2023-08-01T14:31:05;18.90;99.90
54124;DHT22;55741;53.252;5.788;2023-08-01T14:33:31;19.10;99.90
54124;DHT22;55741;53.252;5.788;2023-08-01T14:35:57;19.10;99.90
54124;DHT22;55741;53.252;5.788;2023-08-01T14:38:23;19.20;99.90
54124;DHT22;55741;53.252;5.788;2023-08-01T14:40:49;19.10;99.90
54124;DHT22;55741;53.252;5.788;2023-08-01T14:43:14;19.20;99.90
54124;DHT22;55741;53.252;5.788;2023-08-01T14:45:41;19.40;99.90
54124;DHT22;55741;53.252;5.788;2023-08-01T14:48:07;19.50;99.90
54124;DHT22;55741;53.252;5.788;2023-08-01T14:50:33;19.50;99.90
54124;DHT22;55741;53.252;5.788;2023-08-01T14:53:00;19.50;99.90
54124;DHT22;55741;53.252;5.788;2023-08-01T14:55:29;19.60;99.90
54124;DHT22;55741;53.252;5.788;2023-08-01T14:57:55;19.60;99.90
54124;DHT22;55741;53.252;5.788;2023-08-01T15:00:21;19.60;99.90
54124;DHT22;55741;53.252;5.788;2023-08-01T15:02:47;19.60;99.90
54124;DHT22;55741;53.252;5.788;2023-08-01T15:05:14;19.60;99.90
54124;DHT22;55741;53.252;5.788;2023-08-01T15:07:40;19.60;99.90
54124;DHT22;55741;53.252;5.788;2023-08-01T15:10:06;19.70;99.90
54124;DHT22;55741;53.252;5.788;2023-08-01T15:12:32;19.80;99.90
54124;DHT22;55741;53.252;5.788;2023-08-01T15:14:57;19.90;99.90
54124;DHT22;55741;53.252;5.788;2023-08-01T15:17:24;19.90;99.90
54124;DHT22;55741;53.252;5.788;2023-08-01T15:19:51;19.90;99.90
54124;DHT22;55741;53.252;5.788;2023-08-01T15:22:19;19.80;99.90
54124;DHT22;55741;53.252;5.788;2023-08-01T15:24:45;19.80;99.90
54124;DHT22;55741;53.252;5.788;2023-08-01T15:27:12;19.70;99.90
54124;DHT22;55741;53.252;5.788;2023-08-01T15:29:38;19.60;99.90